Aviation Digital Data Service (ADDS)

Output produced by METARs form (0646 UTC 23 April 2014)
found at http://aviationweather.gov/adds/metars/
 
KCAR 230547Z 2306/2406 11006KT 3SM -RA BR OVC005 
     FM231500 36006KT 5SM -RA SCT008 OVC015 
     FM231900 35008KT P6SM BKN035 OVC050 
     FM232300 34010KT 5SM -RA OVC015